KMHK/MHK METAR and TAF weather

Enter ICAO airport designator
Station Type Date Time Source
KMHK METAR 2019/12/14 18:52 UTC NOAA

KMHK 141852Z 02007KT 10SM CLR 01/M07 A2999 RMK AO2 SLP161 T00111067


Station Type Date Time Source
KMHK Decoded METAR 2019/12/14 18:52 UTC NOAA

MANHATTAN REGIONAL AIRPORT, KS, United States (KMHK) 39-08N 96-41W 317M
Dec 14, 2019 - 01:52 PM EST / 2019.12.14 1852 UTC
Wind: from the NNE (020 degrees) at 8 MPH (7 KT):0
Visibility: 10 mile(s):0
Sky conditions: clear
Temperature: 34.0 F (1.1 C)
Windchill: 26 F (-3 C):1
Dew Point: 19.9 F (-6.7 C)
Relative Humidity: 55%
Pressure (altimeter): 29.99 in. Hg (1015 hPa)
ob: KMHK 141852Z 02007KT 10SM CLR 01/M07 A2999 RMK AO2 SLP161 T00111067
cycle: 19

Station Type Date Time Source
KMHK TAF 2019/12/14 18:36 UTC NOAA

TAF KMHK 141733Z 1418/1518 01007KT P6SM SCT020 BKN120
FM151100 08009KT P6SM VCSH OVC029
FM151400 07011KT 3SM -SN OVC013

Example: see airport list